| ID | Machine | Gebeurtenis | Tijd | Uren | Service | Status | USB ID | |
|---|---|---|---|---|---|---|---|---|
| 4450 | 40-028A | Engine Stopped | 16-08-2024 01:15:24 | 5370 | - | Niet ingesteld | 2592762C8D7 | |
| 4449 | 60-028 XAS | Engine Stopped | 15-08-2024 23:58:58 | 7775 | - | Niet ingesteld | 6F23CF0BFC | |
| 4448 | 200-061XASB-S5 | ECU Lamp | 15-08-2024 23:48:50 | 655 | - | Niet ingesteld | 6E2CAEA751 | |
| 4447 | 40-028A | Battery Voltage | 15-08-2024 23:07:16 | 5367 | - | Niet ingesteld | 2592762C8D7 | |
| 4446 | 200-061XASB-S5 | ECU Lamp | 15-08-2024 22:49:10 | 654 | - | Niet ingesteld | 6E2CAEA751 | |
| 4444 | 300-016XASB-S5 | ECU Lamp | 15-08-2024 21:12:02 | 731 | - | Niet ingesteld | 6E2CEFDBE7 | |
| 4445 | 300-016XASB-S5 | Engine Stopped | 15-08-2024 21:11:51 | 731 | - | Niet ingesteld | 6E2CEFDBE7 | |
| 4443 | 100-074XASB-S5 | Fuel Remaining 101% | 15-08-2024 21:09:38 | 404 | - | Niet ingesteld | 6F2AC40676 | |
| 4442 | 100-069XAB-S5 | POWER DOOR OPEN Warning | 15-08-2024 21:05:16 | 615 | - | Niet ingesteld | 2592AF312D9 | |
| 4441 | 100-069XAB-S5 | Engine Stopped | 15-08-2024 21:02:53 | 615 | - | Niet ingesteld | 2592AF312D9 | |
| 4440 | 40-029A | Engine Stopped | 15-08-2024 20:52:57 | 3916 | - | Niet ingesteld | 6F276400A3 | |
| 4439 | 300-016XASB-S5 | ECU Lamp | 15-08-2024 20:35:58 | 730 | - | Niet ingesteld | 6E2CEFDBE7 | |
| 4438 | 60-028 XAS | Engine Start | 15-08-2024 20:03:55 | 7771 | - | Niet ingesteld | 6F23CF0BFC | |
| 4436 | 100-069XAB-S5 | Generator Over Volts Warning | 15-08-2024 19:56:34 | 614 | - | Niet ingesteld | 2592AF312D9 | |
| 4437 | 100-069XAB-S5 | Engine Start | 15-08-2024 19:56:27 | 614 | - | Niet ingesteld | 2592AF312D9 | |
| 4435 | 60-028 XAS | Engine Stopped | 15-08-2024 19:54:40 | 7771 | - | Niet ingesteld | 6F23CF0BFC | |
| 4434 | 60-028 XAS | Engine Start | 15-08-2024 19:53:06 | 7771 | - | Niet ingesteld | 6F23CF0BFC | |
| 4432 | 300-006XASB-S5 | Engine Stopped | 15-08-2024 19:51:32 | 326 | - | Niet ingesteld | 6B2AC3F29A | |
| 4433 | 300-010XASB-S5 | Engine Stopped | 15-08-2024 19:50:56 | 189 | - | Niet ingesteld | 6D2CAEAB1C | |
| 4431 | 200-045 AS | Generator Over Current Warning | 15-08-2024 19:48:09 | 603 | - | Niet ingesteld | 6F2A305A15 | |
| 4430 | 100-069XAB-S5 | Generator Under Volts Shutdown | 15-08-2024 19:47:36 | 614 | - | Niet ingesteld | 2592AF312D9 | |
| 4429 | 300-016XASB-S5 | ECU Lamp | 15-08-2024 19:34:45 | 730 | - | Niet ingesteld | 6E2CEFDBE7 | |
| 4428 | 300-016XASB-S5 | Engine Stopped | 15-08-2024 19:34:33 | 730 | - | Niet ingesteld | 6E2CEFDBE7 | |
| 4427 | 300-004 XASB-S5 | Engine Start | 15-08-2024 19:24:55 | 452 | - | Niet ingesteld | 6B2AC18814 | |
| 4426 | 300-010XASB-S5 | MSC Failure Warning | 15-08-2024 19:24:37 | 189 | - | Niet ingesteld | 6D2CAEAB1C |